Time;durP1;ratioP1;P1;durP2;ratioP2;P2;SDS_P1;SDS_P2;PMS_P1;PMS_P2;Temp;Humidity;BMP_temperature;BMP_pressure;BME280_temperature;BME280_humidity;BME280_pressure;Samples;Min_cycle;Max_cycle;Signal;HPM_P1;HPM_P2
2021/12/01 00:00:58;;;;;;;1.20;1.10;;;;;;;;;;5039365;28;20498;-64
2021/12/01 00:03:24;;;;;;;1.60;0.97;;;;;;;;;;5039178;28;20541;-64
2021/12/01 00:05:51;;;;;;;1.10;1.00;;;;;;;;;;5039269;28;20863;-63
2021/12/01 00:08:17;;;;;;;1.83;1.10;;;;;;;;;;5048417;28;20901;-64
2021/12/01 00:10:44;;;;;;;1.30;1.00;;;;;;;;;;5059295;28;20494;-64
2021/12/01 00:13:13;;;;;;;1.50;1.40;;;;;;;;;;5059186;28;20399;-64
2021/12/01 00:15:39;;;;;;;2.17;1.10;;;;;;;;;;5059044;28;20896;-64
2021/12/01 00:18:05;;;;;;;1.10;1.00;;;;;;;;;;5058391;28;20455;-64
2021/12/01 00:20:31;;;;;;;1.10;0.97;;;;;;;;;;5059134;28;20897;-64
2021/12/01 00:22:59;;;;;;;1.10;0.90;;;;;;;;;;5059078;28;20528;-65
2021/12/01 00:25:27;;;;;;;1.20;1.10;;;;;;;;;;5058190;28;20430;-64
2021/12/01 00:27:53;;;;;;;1.87;1.23;;;;;;;;;;5057562;28;20407;-66
2021/12/01 00:30:20;;;;;;;1.40;1.30;;;;;;;;;;5055518;28;20449;-66
2021/12/01 00:32:46;;;;;;;3.03;1.20;;;;;;;;;;5055777;28;20434;-63
2021/12/01 00:35:12;;;;;;;2.47;1.13;;;;;;;;;;5054951;28;20421;-65
2021/12/01 00:37:40;;;;;;;0.87;0.87;;;;;;;;;;5055744;28;20893;-63
2021/12/01 00:40:07;;;;;;;1.67;1.20;;;;;;;;;;5055709;28;20422;-66
2021/12/01 00:42:33;;;;;;;0.90;0.90;;;;;;;;;;5055627;28;20409;-63
2021/12/01 00:45:06;;;;;;;1.23;1.10;;;;;;;;;;5054741;28;20422;-63
2021/12/01 00:47:45;;;;;;;0.83;0.83;;;;;;;;;;5055291;28;20492;-63
2021/12/01 00:50:12;;;;;;;0.90;0.90;;;;;;;;;;5055550;28;21008;-65
2021/12/01 00:52:38;;;;;;;0.83;0.83;;;;;;;;;;5054620;28;20444;-63
2021/12/01 00:55:05;;;;;;;1.00;0.70;;;;;;;;;;5055176;28;20411;-63
2021/12/01 00:57:31;;;;;;;1.30;1.20;;;;;;;;;;5055481;28;20496;-63
2021/12/01 00:59:57;;;;;;;1.50;0.80;;;;;;;;;;5055394;28;20898;-63
2021/12/01 01:02:23;;;;;;;0.70;0.70;;;;;;;;;;5044630;28;20521;-63
2021/12/01 01:04:49;;;;;;;0.90;0.90;;;;;;;;;;5035322;28;20455;-63
2021/12/01 01:07:15;;;;;;;1.00;0.90;;;;;;;;;;5035308;28;20410;-63
2021/12/01 01:09:43;;;;;;;0.80;0.80;;;;;;;;;;5035325;28;20461;-64
2021/12/01 01:17:40;;;;;;;1.07;0.97;;;;;;;;;;5035252;28;20408;-63
2021/12/01 01:20:07;;;;;;;1.10;0.83;;;;;;;;;;5035079;28;20509;-64
2021/12/01 01:22:33;;;;;;;1.00;1.00;;;;;;;;;;5034826;28;20415;-63
2021/12/01 01:24:59;;;;;;;1.67;0.87;;;;;;;;;;5035049;28;20405;-63
2021/12/01 01:27:25;;;;;;;1.03;1.03;;;;;;;;;;5034898;28;20732;-64
2021/12/01 01:29:51;;;;;;;1.10;1.03;;;;;;;;;;5035808;28;20400;-65
2021/12/01 01:32:17;;;;;;;2.40;1.33;;;;;;;;;;5054735;28;20442;-65
2021/12/01 01:34:43;;;;;;;1.03;1.00;;;;;;;;;;5054659;28;20914;-65
2021/12/01 01:37:09;;;;;;;3.60;1.10;;;;;;;;;;5054598;28;20410;-63
2021/12/01 01:39:35;;;;;;;1.07;0.97;;;;;;;;;;5052124;28;20429;-63
2021/12/01 01:42:01;;;;;;;1.87;0.83;;;;;;;;;;5034649;28;20425;-64
2021/12/01 01:44:30;;;;;;;1.30;1.20;;;;;;;;;;5036995;28;20407;-64
2021/12/01 01:46:56;;;;;;;1.10;1.00;;;;;;;;;;5034488;28;20459;-63
2021/12/01 01:49:35;;;;;;;1.63;1.27;;;;;;;;;;5052061;28;20414;-65
2021/12/01 01:52:01;;;;;;;1.50;1.40;;;;;;;;;;5054373;28;20466;-64
2021/12/01 01:54:27;;;;;;;1.07;1.00;;;;;;;;;;5054282;28;20406;-64
2021/12/01 01:56:53;;;;;;;1.53;1.43;;;;;;;;;;5043116;28;20568;-64
2021/12/01 01:59:19;;;;;;;1.17;1.17;;;;;;;;;;5034436;28;20483;-66
2021/12/01 02:01:45;;;;;;;1.67;1.50;;;;;;;;;;5034260;28;20793;-63
2021/12/01 02:04:13;;;;;;;1.43;1.33;;;;;;;;;;5034239;28;20871;-64
2021/12/01 02:06:39;;;;;;;1.50;1.40;;;;;;;;;;5047085;28;20931;-64
2021/12/01 02:09:05;;;;;;;1.70;1.60;;;;;;;;;;5054089;28;20410;-64
2021/12/01 02:11:31;;;;;;;2.70;1.57;;;;;;;;;;5054001;28;20482;-64
2021/12/01 02:13:58;;;;;;;1.37;1.20;;;;;;;;;;5053950;28;20420;-64
2021/12/01 02:16:24;;;;;;;1.40;1.30;;;;;;;;;;5053009;28;20452;-64
2021/12/01 02:18:50;;;;;;;1.63;1.20;;;;;;;;;;5053867;28;20447;-64
2021/12/01 02:21:27;;;;;;;1.30;1.20;;;;;;;;;;5053867;28;20410;-64
2021/12/01 02:23:54;;;;;;;1.00;1.00;;;;;;;;;;5053007;28;20421;-64
2021/12/01 02:26:21;;;;;;;1.40;1.30;;;;;;;;;;5053759;28;20555;-64
2021/12/01 02:28:48;;;;;;;1.83;1.40;;;;;;;;;;5053766;28;20968;-63
2021/12/01 02:31:14;;;;;;;1.50;1.40;;;;;;;;;;5053419;28;20566;-63
2021/12/01 02:33:40;;;;;;;1.53;1.43;;;;;;;;;;5052777;28;20426;-63
2021/12/01 02:36:10;;;;;;;1.30;1.20;;;;;;;;;;5053489;28;20422;-64
2021/12/01 02:38:37;;;;;;;2.30;1.60;;;;;;;;;;5053636;28;20450;-63
2021/12/01 02:41:03;;;;;;;1.50;1.30;;;;;;;;;;5053605;28;20429;-63
2021/12/01 02:43:30;;;;;;;1.23;1.13;;;;;;;;;;5052525;28;20898;-63
2021/12/01 02:45:56;;;;;;;1.00;1.00;;;;;;;;;;5052990;28;20518;-63
2021/12/01 02:48:23;;;;;;;2.03;1.30;;;;;;;;;;5053263;28;20437;-64
2021/12/01 02:50:50;;;;;;;2.00;1.20;;;;;;;;;;5043202;28;20481;-63
2021/12/01 02:53:16;;;;;;;1.20;1.10;;;;;;;;;;5033086;28;20411;-64
2021/12/01 02:55:53;;;;;;;2.60;1.20;;;;;;;;;;5033105;28;20500;-63
2021/12/01 02:58:20;;;;;;;0.80;0.80;;;;;;;;;;5041496;28;20417;-64
2021/12/01 03:00:46;;;;;;;1.10;1.00;;;;;;;;;;5053222;28;20409;-64
2021/12/01 03:03:13;;;;;;;1.10;1.00;;;;;;;;;;5052982;28;21055;-64
2021/12/01 03:05:39;;;;;;;1.30;1.20;;;;;;;;;;5052349;28;20414;-64
2021/12/01 03:08:05;;;;;;;1.43;0.90;;;;;;;;;;5053202;28;20419;-66
2021/12/01 03:10:31;;;;;;;1.10;0.90;;;;;;;;;;5053018;28;20477;-66
2021/12/01 03:12:57;;;;;;;0.90;0.90;;;;;;;;;;5053048;28;20464;-65
2021/12/01 03:15:23;;;;;;;1.00;0.90;;;;;;;;;;5052071;28;20819;-67
2021/12/01 03:17:49;;;;;;;1.23;1.03;;;;;;;;;;5053044;28;20463;-65
2021/12/01 03:20:20;;;;;;;1.00;1.00;;;;;;;;;;5053006;28;20428;-66
2021/12/01 03:22:46;;;;;;;1.10;1.00;;;;;;;;;;5053042;28;20440;-66
2021/12/01 03:25:13;;;;;;;1.30;1.20;;;;;;;;;;5052145;28;20429;-65
2021/12/01 03:27:39;;;;;;;1.00;0.90;;;;;;;;;;5052902;28;20457;-65
2021/12/01 03:30:09;;;;;;;1.37;1.20;;;;;;;;;;5052953;28;20899;-65
2021/12/01 03:32:36;;;;;;;1.17;1.10;;;;;;;;;;5052017;28;20797;-66
2021/12/01 03:35:04;;;;;;;1.27;1.17;;;;;;;;;;5052737;28;20882;-66
2021/12/01 03:37:30;;;;;;;1.33;1.10;;;;;;;;;;5049424;28;20958;-65
2021/12/01 03:39:58;;;;;;;1.13;1.00;;;;;;;;;;5052915;28;20418;-65
2021/12/01 03:42:24;;;;;;;1.17;1.07;;;;;;;;;;5051983;28;20436;-63
2021/12/01 03:44:50;;;;;;;1.30;1.10;;;;;;;;;;5052808;28;20797;-65
2021/12/01 03:47:16;;;;;;;1.30;1.20;;;;;;;;;;5052818;28;20412;-66
2021/12/01 03:49:42;;;;;;;0.97;0.97;;;;;;;;;;5052022;28;20425;-65
2021/12/01 03:52:14;;;;;;;1.17;1.07;;;;;;;;;;5052693;28;20915;-66
2021/12/01 03:54:40;;;;;;;1.17;1.10;;;;;;;;;;5052666;28;20398;-65
2021/12/01 03:57:06;;;;;;;1.97;1.30;;;;;;;;;;5052605;28;20966;-64
2021/12/01 03:59:33;;;;;;;1.30;1.20;;;;;;;;;;5033557;28;20917;-66
2021/12/01 04:01:58;;;;;;;0.87;0.87;;;;;;;;;;5032627;28;20430;-64
2021/12/01 04:04:24;;;;;;;1.40;1.00;;;;;;;;;;5036388;28;20802;-65
2021/12/01 04:06:50;;;;;;;1.47;1.20;;;;;;;;;;5037545;28;20409;-66
2021/12/01 04:09:16;;;;;;;1.30;1.20;;;;;;;;;;5056343;28;20412;-65
2021/12/01 04:11:42;;;;;;;1.13;1.03;;;;;;;;;;5056177;28;20466;-65
2021/12/01 04:14:09;;;;;;;1.30;1.20;;;;;;;;;;5056417;28;20401;-65
2021/12/01 04:16:35;;;;;;;1.37;1.10;;;;;;;;;;5055366;28;20431;-65
2021/12/01 04:19:01;;;;;;;1.00;0.87;;;;;;;;;;5056190;28;20399;-65
2021/12/01 04:21:27;;;;;;;1.00;1.00;;;;;;;;;;5056138;28;20414;-65
2021/12/01 04:23:54;;;;;;;1.10;1.10;;;;;;;;;;5056255;28;20734;-65
2021/12/01 04:26:23;;;;;;;1.00;1.00;;;;;;;;;;5044817;28;20431;-65
2021/12/01 04:28:50;;;;;;;1.63;1.20;;;;;;;;;;5035977;28;20407;-66
2021/12/01 04:31:16;;;;;;;1.27;1.17;;;;;;;;;;5035837;28;20481;-65
2021/12/01 04:33:42;;;;;;;1.20;1.10;;;;;;;;;;5035455;28;20424;-65
2021/12/01 04:36:09;;;;;;;1.07;0.97;;;;;;;;;;5036101;28;20406;-65
2021/12/01 04:38:35;;;;;;;1.30;1.20;;;;;;;;;;5035954;28;20474;-65
2021/12/01 04:41:02;;;;;;;1.47;1.10;;;;;;;;;;5035646;28;20412;-65
2021/12/01 04:43:28;;;;;;;1.30;1.20;;;;;;;;;;5055673;28;20405;-66
2021/12/01 04:45:58;;;;;;;1.20;1.00;;;;;;;;;;5055823;28;20415;-67
2021/12/01 04:48:25;;;;;;;2.07;1.23;;;;;;;;;;5055671;28;20403;-65
2021/12/01 04:50:51;;;;;;;1.57;1.30;;;;;;;;;;5054403;28;20531;-65
2021/12/01 04:53:17;;;;;;;1.10;1.00;;;;;;;;;;5055318;28;20403;-65
2021/12/01 04:55:44;;;;;;;2.50;1.40;;;;;;;;;;5055261;28;20909;-65
2021/12/01 04:58:10;;;;;;;1.63;1.00;;;;;;;;;;5054636;28;20422;-64
2021/12/01 05:00:37;;;;;;;3.23;1.53;;;;;;;;;;5055482;28;20885;-67
2021/12/01 05:03:03;;;;;;;1.27;1.17;;;;;;;;;;5055218;28;20423;-65
2021/12/01 05:05:29;;;;;;;1.33;1.07;;;;;;;;;;5053905;28;20406;-65
2021/12/01 05:07:56;;;;;;;1.83;1.10;;;;;;;;;;5035321;28;20460;-65
2021/12/01 05:10:22;;;;;;;1.53;1.20;;;;;;;;;;5035191;28;20873;-67
2021/12/01 05:12:48;;;;;;;0.97;0.97;;;;;;;;;;5035094;28;20484;-67
2021/12/01 05:15:14;;;;;;;1.77;0.93;;;;;;;;;;5034299;28;20484;-67
2021/12/01 05:17:40;;;;;;;1.87;1.13;;;;;;;;;;5035228;28;20527;-67
2021/12/01 05:20:07;;;;;;;4.40;1.43;;;;;;;;;;5035099;28;20477;-67
2021/12/01 05:22:34;;;;;;;0.80;0.80;;;;;;;;;;5035109;28;20399;-68
2021/12/01 05:25:00;;;;;;;1.00;0.90;;;;;;;;;;5035078;28;20402;-65
2021/12/01 05:27:26;;;;;;;1.13;1.03;;;;;;;;;;5053783;28;20413;-66
2021/12/01 05:29:52;;;;;;;1.33;1.10;;;;;;;;;;5054842;28;20768;-65
2021/12/01 05:32:20;;;;;;;1.20;1.00;;;;;;;;;;5051126;28;20485;-65
2021/12/01 05:34:46;;;;;;;0.80;0.70;;;;;;;;;;5053863;28;20953;-65
2021/12/01 05:37:12;;;;;;;0.90;0.90;;;;;;;;;;5054714;28;20402;-68
2021/12/01 05:39:41;;;;;;;0.83;0.83;;;;;;;;;;5054644;28;20394;-65
2021/12/01 05:42:07;;;;;;;0.93;0.90;;;;;;;;;;5054586;28;20438;-65
2021/12/01 05:44:34;;;;;;;1.00;0.90;;;;;;;;;;5053747;28;20427;-65
2021/12/01 05:47:00;;;;;;;1.13;1.00;;;;;;;;;;5054484;28;20411;-64
2021/12/01 05:49:26;;;;;;;0.90;0.80;;;;;;;;;;5054572;28;20409;-65
2021/12/01 05:51:52;;;;;;;0.63;0.53;;;;;;;;;;5054322;28;20484;-65
2021/12/01 05:54:18;;;;;;;1.07;0.80;;;;;;;;;;5051597;28;20814;-66
2021/12/01 05:56:44;;;;;;;0.80;0.80;;;;;;;;;;5034285;28;20536;-66
2021/12/01 05:59:10;;;;;;;2.70;1.00;;;;;;;;;;5034410;28;20900;-66
2021/12/01 06:01:36;;;;;;;0.80;0.80;;;;;;;;;;5034221;28;20840;-65
2021/12/01 06:04:02;;;;;;;0.70;0.70;;;;;;;;;;5049946;28;20425;-66
2021/12/01 06:06:29;;;;;;;3.43;0.90;;;;;;;;;;5054152;28;20418;-65
2021/12/01 06:08:58;;;;;;;0.80;0.80;;;;;;;;;;5054060;28;20397;-66
2021/12/01 06:11:24;;;;;;;0.90;0.70;;;;;;;;;;5053839;28;20517;-66
2021/12/01 06:13:52;;;;;;;0.80;0.80;;;;;;;;;;5034196;28;20414;-64
2021/12/01 06:16:22;;;;;;;0.70;0.70;;;;;;;;;;5033892;28;20955;-65
2021/12/01 06:18:48;;;;;;;1.57;1.47;;;;;;;;;;5033886;28;20899;-65
2021/12/01 06:21:15;;;;;;;3.33;0.87;;;;;;;;;;5033817;28;20476;-65
2021/12/01 06:23:41;;;;;;;0.70;0.70;;;;;;;;;;5033696;28;20445;-65
2021/12/01 06:26:07;;;;;;;1.33;0.70;;;;;;;;;;5031576;28;20966;-66
2021/12/01 06:28:33;;;;;;;2.00;1.30;;;;;;;;;;5033564;28;20500;-66
2021/12/01 06:30:59;;;;;;;0.83;0.80;;;;;;;;;;5033627;28;20929;-66
2021/12/01 06:33:25;;;;;;;1.10;0.80;;;;;;;;;;5033424;28;20411;-67
2021/12/01 06:35:52;;;;;;;0.60;0.60;;;;;;;;;;5033669;28;20513;-66
2021/12/01 06:38:18;;;;;;;1.10;0.70;;;;;;;;;;5033397;28;20422;-65
2021/12/01 06:40:45;;;;;;;1.00;0.60;;;;;;;;;;5033574;28;20460;-65
2021/12/01 06:43:11;;;;;;;1.83;1.00;;;;;;;;;;5033534;28;20415;-66
2021/12/01 06:45:37;;;;;;;0.70;0.70;;;;;;;;;;5033504;28;21040;-67
2021/12/01 06:48:03;;;;;;;0.80;0.77;;;;;;;;;;5042799;28;20505;-66
2021/12/01 06:50:29;;;;;;;1.00;0.70;;;;;;;;;;5053364;28;20507;-66
2021/12/01 06:52:55;;;;;;;0.80;0.80;;;;;;;;;;5053040;28;20421;-67
2021/12/01 06:55:23;;;;;;;2.03;0.87;;;;;;;;;;5053170;28;20964;-65
2021/12/01 06:57:49;;;;;;;0.70;0.60;;;;;;;;;;5052519;28;20433;-65
2021/12/01 07:00:15;;;;;;;1.00;0.90;;;;;;;;;;5053193;28;20839;-67
2021/12/01 07:02:41;;;;;;;1.93;1.00;;;;;;;;;;5052924;28;20499;-68
2021/12/01 07:05:08;;;;;;;0.70;0.60;;;;;;;;;;5046543;28;20449;-65
2021/12/01 07:07:34;;;;;;;1.90;0.90;;;;;;;;;;5033278;28;20468;-64
2021/12/01 07:10:01;;;;;;;0.90;0.90;;;;;;;;;;5033253;28;20403;-66
2021/12/01 07:12:27;;;;;;;0.80;0.80;;;;;;;;;;5032993;28;20489;-66
2021/12/01 07:14:53;;;;;;;2.10;1.07;;;;;;;;;;5033078;28;20416;-67
2021/12/01 07:17:20;;;;;;;1.43;0.87;;;;;;;;;;5033053;28;20418;-65
2021/12/01 07:19:48;;;;;;;0.70;0.70;;;;;;;;;;5033197;28;20401;-64
2021/12/01 07:22:14;;;;;;;0.90;0.70;;;;;;;;;;5033127;28;20414;-66
2021/12/01 07:24:40;;;;;;;0.70;0.70;;;;;;;;;;5040243;28;20926;-65
2021/12/01 07:27:06;;;;;;;0.70;0.70;;;;;;;;;;5050500;28;20495;-65
2021/12/01 07:29:34;;;;;;;1.30;0.80;;;;;;;;;;5052875;28;20884;-65
2021/12/01 07:32:00;;;;;;;0.70;0.70;;;;;;;;;;5052780;28;20976;-65
2021/12/01 07:34:26;;;;;;;0.70;0.60;;;;;;;;;;5033076;28;20429;-65
2021/12/01 07:36:52;;;;;;;1.07;0.90;;;;;;;;;;5032912;28;20411;-64
2021/12/01 07:39:19;;;;;;;0.70;0.70;;;;;;;;;;5036452;28;20482;-65
2021/12/01 07:41:45;;;;;;;1.00;0.70;;;;;;;;;;5036841;28;20416;-64
2021/12/01 07:44:12;;;;;;;6.03;0.80;;;;;;;;;;5054792;28;20432;-65
2021/12/01 07:46:38;;;;;;;0.70;0.70;;;;;;;;;;5056738;28;20417;-64
2021/12/01 07:49:04;;;;;;;1.17;0.70;;;;;;;;;;5056832;28;20841;-64
2021/12/01 07:51:30;;;;;;;0.93;0.80;;;;;;;;;;5055852;28;20512;-64
2021/12/01 07:53:56;;;;;;;1.10;0.60;;;;;;;;;;5056436;28;20923;-64
2021/12/01 07:56:23;;;;;;;1.60;0.90;;;;;;;;;;5056425;28;20465;-65
2021/12/01 07:58:49;;;;;;;0.60;0.60;;;;;;;;;;5056460;28;20409;-64
2021/12/01 08:01:15;;;;;;;0.73;0.73;;;;;;;;;;5050884;28;20780;-64
2021/12/01 08:03:41;;;;;;;1.37;0.77;;;;;;;;;;5036389;28;20406;-64
2021/12/01 08:06:08;;;;;;;1.47;0.70;;;;;;;;;;5036410;28;20426;-65
2021/12/01 08:08:34;;;;;;;0.80;0.70;;;;;;;;;;5036472;28;20398;-64
2021/12/01 08:11:00;;;;;;;0.60;0.60;;;;;;;;;;5036151;28;20467;-67
2021/12/01 08:13:26;;;;;;;0.60;0.53;;;;;;;;;;5036082;28;20785;-67
2021/12/01 08:15:52;;;;;;;0.70;0.60;;;;;;;;;;5036088;28;20819;-64
2021/12/01 08:18:19;;;;;;;0.70;0.70;;;;;;;;;;5045122;28;20429;-66
2021/12/01 08:20:45;;;;;;;0.90;0.60;;;;;;;;;;5056193;28;20402;-66
2021/12/01 08:23:11;;;;;;;1.00;0.70;;;;;;;;;;5056010;28;20504;-65
2021/12/01 08:25:37;;;;;;;0.60;0.50;;;;;;;;;;5055058;28;20440;-66
2021/12/01 08:28:04;;;;;;;1.83;0.70;;;;;;;;;;5055992;28;20424;-67
2021/12/01 08:30:31;;;;;;;0.90;0.60;;;;;;;;;;5055755;28;20460;-66
2021/12/01 08:32:58;;;;;;;1.23;0.60;;;;;;;;;;5055604;28;20432;-67
2021/12/01 08:35:24;;;;;;;0.57;0.53;;;;;;;;;;5054908;28;20412;-67
2021/12/01 08:37:51;;;;;;;1.00;0.90;;;;;;;;;;5055865;28;20410;-67
2021/12/01 08:40:18;;;;;;;1.10;0.77;;;;;;;;;;5055822;28;20416;-67
2021/12/01 08:42:45;;;;;;;0.70;0.60;;;;;;;;;;5054837;28;20425;-68
2021/12/01 08:45:11;;;;;;;0.70;0.60;;;;;;;;;;5055730;28;20437;-67
2021/12/01 08:47:37;;;;;;;0.60;0.60;;;;;;;;;;5055733;28;21031;-65
2021/12/01 08:50:04;;;;;;;1.10;0.63;;;;;;;;;;5054509;28;20410;-65
2021/12/01 08:52:30;;;;;;;1.40;0.70;;;;;;;;;;5054137;28;20460;-65
2021/12/01 08:54:56;;;;;;;0.77;0.70;;;;;;;;;;5055432;28;20413;-68
2021/12/01 08:57:22;;;;;;;1.00;0.70;;;;;;;;;;5055551;28;20487;-66
2021/12/01 08:59:49;;;;;;;0.70;0.60;;;;;;;;;;5053627;28;20393;-66
2021/12/01 09:02:15;;;;;;;0.60;0.60;;;;;;;;;;5035222;28;20926;-66
2021/12/01 09:04:41;;;;;;;0.60;0.60;;;;;;;;;;5035385;28;20409;-66
2021/12/01 09:07:07;;;;;;;0.60;0.50;;;;;;;;;;5035260;28;20407;-66
2021/12/01 09:09:33;;;;;;;0.60;0.47;;;;;;;;;;5035037;28;20430;-67
2021/12/01 09:11:59;;;;;;;1.53;0.57;;;;;;;;;;5035091;28;21048;-67
2021/12/01 09:14:26;;;;;;;0.80;0.60;;;;;;;;;;5034995;28;20441;-68
2021/12/01 09:16:53;;;;;;;2.17;0.70;;;;;;;;;;5035204;28;20406;-66
2021/12/01 09:19:19;;;;;;;0.63;0.53;;;;;;;;;;5049765;28;20429;-68
2021/12/01 09:21:45;;;;;;;1.37;0.60;;;;;;;;;;5054913;28;20398;-66
2021/12/01 09:24:14;;;;;;;0.70;0.60;;;;;;;;;;5054037;28;20447;-67
2021/12/01 09:26:40;;;;;;;1.10;0.93;;;;;;;;;;5052479;28;20758;-66
2021/12/01 09:29:06;;;;;;;1.00;0.70;;;;;;;;;;5035641;28;20422;-66
2021/12/01 09:31:32;;;;;;;0.90;0.60;;;;;;;;;;5034635;28;20470;-67
2021/12/01 09:33:59;;;;;;;0.60;0.50;;;;;;;;;;5034710;28;20442;-66
2021/12/01 09:36:25;;;;;;;0.60;0.50;;;;;;;;;;5041192;28;20434;-66
2021/12/01 09:38:51;;;;;;;0.70;0.50;;;;;;;;;;5054624;28;20413;-67
2021/12/01 09:41:17;;;;;;;1.20;0.70;;;;;;;;;;5054587;28;20568;-67
2021/12/01 09:43:43;;;;;;;0.70;0.60;;;;;;;;;;5053594;28;20429;-67
2021/12/01 09:46:10;;;;;;;0.60;0.60;;;;;;;;;;5054551;28;20528;-68
2021/12/01 09:48:38;;;;;;;2.07;0.80;;;;;;;;;;5054512;28;20428;-68
2021/12/01 09:51:04;;;;;;;0.80;0.70;;;;;;;;;;5054396;28;20827;-69
2021/12/01 09:53:30;;;;;;;1.23;0.70;;;;;;;;;;5045454;28;20430;-68
2021/12/01 09:55:56;;;;;;;1.30;0.70;;;;;;;;;;5034246;28;20961;-67
2021/12/01 09:58:24;;;;;;;0.60;0.50;;;;;;;;;;5034736;28;20407;-68
2021/12/01 10:00:52;;;;;;;1.03;0.70;;;;;;;;;;5034215;28;20457;-68
2021/12/01 10:03:18;;;;;;;0.50;0.50;;;;;;;;;;5034154;28;20435;-67
2021/12/01 10:06:13;;;;;;;0.67;0.53;;;;;;;;;;5034385;28;20434;-68
2021/12/01 10:08:47;;;;;;;0.60;0.60;;;;;;;;;;5034287;28;20418;-68
2021/12/01 10:11:15;;;;;;;4.83;2.63;;;;;;;;;;5038062;28;20988;-68
2021/12/01 10:13:43;;;;;;;1.20;0.67;;;;;;;;;;5054008;28;20520;-67
2021/12/01 10:16:10;;;;;;;0.60;0.50;;;;;;;;;;5053973;28;20500;-67
2021/12/01 10:18:40;;;;;;;1.40;0.60;;;;;;;;;;5054056;28;20410;-67
2021/12/01 10:21:09;;;;;;;1.13;0.67;;;;;;;;;;5040253;28;20487;-68
2021/12/01 10:23:36;;;;;;;1.33;0.70;;;;;;;;;;5033953;28;20407;-67
2021/12/01 10:26:15;;;;;;;1.23;0.70;;;;;;;;;;5033795;28;20444;-68
2021/12/01 10:28:52;;;;;;;0.70;0.60;;;;;;;;;;5033803;28;20510;-67
2021/12/01 10:31:38;;;;;;;0.80;0.60;;;;;;;;;;5033631;28;20496;-68
2021/12/01 10:34:26;;;;;;;0.60;0.60;;;;;;;;;;5033585;28;20772;-69
2021/12/01 10:37:12;;;;;;;0.87;0.80;;;;;;;;;;5033752;28;20513;-69
2021/12/01 10:39:39;;;;;;;1.53;0.70;;;;;;;;;;5033163;28;20414;-68
2021/12/01 10:42:06;;;;;;;1.10;0.63;;;;;;;;;;5033645;28;20476;-67
2021/12/01 10:44:33;;;;;;;0.60;0.50;;;;;;;;;;5037838;28;20419;-68
2021/12/01 10:47:06;;;;;;;1.23;0.50;;;;;;;;;;5053414;28;20409;-67
2021/12/01 10:49:38;;;;;;;1.20;0.50;;;;;;;;;;5053198;28;20408;-68
2021/12/01 10:52:04;;;;;;;0.73;0.67;;;;;;;;;;5053224;28;20818;-66
2021/12/01 10:54:30;;;;;;;1.43;0.50;;;;;;;;;;5052270;28;20430;-68
2021/12/01 10:57:15;;;;;;;0.60;0.50;;;;;;;;;;5053128;28;20470;-66
2021/12/01 10:59:45;;;;;;;2.03;0.60;;;;;;;;;;5052755;28;20915;-66
2021/12/01 11:02:11;;;;;;;0.80;0.60;;;;;;;;;;5048805;28;20961;-68
2021/12/01 11:04:50;;;;;;;0.50;0.40;;;;;;;;;;5033304;28;20960;-67
2021/12/01 11:07:32;;;;;;;0.60;0.50;;;;;;;;;;5033264;28;20410;-69
2021/12/01 11:10:11;;;;;;;0.60;0.50;;;;;;;;;;5033194;28;20499;-66
2021/12/01 11:12:38;;;;;;;1.70;0.50;;;;;;;;;;5032299;28;21027;-65
2021/12/01 11:15:27;;;;;;;0.60;0.50;;;;;;;;;;5033056;28;20502;-66
2021/12/01 11:17:54;;;;;;;0.60;0.50;;;;;;;;;;5032570;28;20500;-64
2021/12/01 11:20:35;;;;;;;0.70;0.50;;;;;;;;;;5033005;28;20429;-65
2021/12/01 11:23:22;;;;;;;0.80;0.70;;;;;;;;;;5033015;28;20406;-67
2021/12/01 11:25:52;;;;;;;0.70;0.70;;;;;;;;;;5035435;28;20488;-65
2021/12/01 11:28:20;;;;;;;0.70;0.70;;;;;;;;;;5032891;28;20468;-66
2021/12/01 11:30:48;;;;;;;1.10;0.60;;;;;;;;;;5032743;28;20960;-66
2021/12/01 11:33:17;;;;;;;0.90;0.60;;;;;;;;;;5032854;28;20513;-65
2021/12/01 11:35:44;;;;;;;0.70;0.60;;;;;;;;;;5032965;28;20889;-66
2021/12/01 11:38:11;;;;;;;0.70;0.50;;;;;;;;;;5049408;28;20422;-65
2021/12/01 11:40:37;;;;;;;0.70;0.57;;;;;;;;;;5052817;28;20455;-63
2021/12/01 11:43:05;;;;;;;0.90;0.60;;;;;;;;;;5052744;28;20438;-64
2021/12/01 11:45:31;;;;;;;1.00;0.60;;;;;;;;;;5044693;28;20450;-65
2021/12/01 11:47:58;;;;;;;0.60;0.40;;;;;;;;;;5032816;28;20410;-64
2021/12/01 11:50:32;;;;;;;0.70;0.57;;;;;;;;;;5032759;28;20403;-64
2021/12/01 11:53:00;;;;;;;0.83;0.80;;;;;;;;;;5032500;28;20484;-64
2021/12/01 11:55:45;;;;;;;0.77;0.50;;;;;;;;;;5032647;28;20569;-64
2021/12/01 11:58:11;;;;;;;0.70;0.63;;;;;;;;;;5032702;28;20465;-66
2021/12/01 12:00:44;;;;;;;0.70;0.60;;;;;;;;;;5032550;28;20433;-65
2021/12/01 12:03:24;;;;;;;0.80;0.50;;;;;;;;;;5048705;28;20478;-66
2021/12/01 12:06:09;;;;;;;0.60;0.50;;;;;;;;;;5052644;28;20428;-66
2021/12/01 12:08:53;;;;;;;1.10;0.60;;;;;;;;;;5052475;28;20775;-64
2021/12/01 12:11:56;;;;;;;1.50;1.00;;;;;;;;;;5051519;28;20473;-64
2021/12/01 12:14:26;;;;;;;0.80;0.70;;;;;;;;;;5050302;28;20411;-64
2021/12/01 12:17:01;;;;;;;1.33;0.80;;;;;;;;;;5051905;28;20425;-65
2021/12/01 12:19:46;;;;;;;1.00;0.80;;;;;;;;;;5044733;28;20426;-64
2021/12/01 12:25:08;;;;;;;0.80;0.63;;;;;;;;;;5034619;28;20418;-65
2021/12/01 12:27:44;;;;;;;3.53;1.00;;;;;;;;;;5036022;28;20952;-65
2021/12/01 12:30:13;;;;;;;0.80;0.70;;;;;;;;;;5035965;28;20417;-65
2021/12/01 12:32:42;;;;;;;1.70;1.13;;;;;;;;;;5035676;28;20949;-64
2021/12/01 12:35:10;;;;;;;1.73;0.90;;;;;;;;;;5035876;28;20406;-65
2021/12/01 12:37:36;;;;;;;0.90;0.90;;;;;;;;;;5045606;28;20426;-66
2021/12/01 12:40:04;;;;;;;0.90;0.90;;;;;;;;;;5055777;28;20433;-65
2021/12/01 12:42:30;;;;;;;1.00;0.80;;;;;;;;;;5055723;28;20464;-64
2021/12/01 12:44:58;;;;;;;1.03;0.90;;;;;;;;;;5055701;28;20897;-63
2021/12/01 12:47:26;;;;;;;1.50;1.10;;;;;;;;;;5045093;28;20466;-64
2021/12/01 12:49:54;;;;;;;1.07;1.03;;;;;;;;;;5035592;28;20500;-64
2021/12/01 12:52:26;;;;;;;3.10;0.93;;;;;;;;;;5035519;28;20473;-64
2021/12/01 12:55:21;;;;;;;1.47;1.00;;;;;;;;;;5035453;28;20822;-64
2021/12/01 12:57:58;;;;;;;1.90;1.30;;;;;;;;;;5038882;28;20455;-64
2021/12/01 13:00:27;;;;;;;1.30;1.20;;;;;;;;;;5035575;28;20446;-64
2021/12/01 13:02:54;;;;;;;1.17;1.07;;;;;;;;;;5039162;28;20475;-64
2021/12/01 13:05:34;;;;;;;3.23;1.20;;;;;;;;;;5054640;28;20802;-64
2021/12/01 13:08:00;;;;;;;2.80;1.50;;;;;;;;;;5055186;28;20408;-64
2021/12/01 13:10:31;;;;;;;1.10;1.00;;;;;;;;;;5055216;28;20416;-64
2021/12/01 13:13:02;;;;;;;3.20;1.10;;;;;;;;;;5054900;28;20416;-65
2021/12/01 13:15:37;;;;;;;1.20;1.10;;;;;;;;;;5037864;28;20913;-65
2021/12/01 13:18:17;;;;;;;1.20;1.10;;;;;;;;;;5035271;28;20419;-66
2021/12/01 13:20:46;;;;;;;1.27;0.93;;;;;;;;;;5035163;28;20529;-64
2021/12/01 13:23:15;;;;;;;2.10;1.10;;;;;;;;;;5049478;28;20417;-64
2021/12/01 13:25:42;;;;;;;2.60;1.00;;;;;;;;;;5054900;28;20413;-64
2021/12/01 13:28:10;;;;;;;1.33;0.90;;;;;;;;;;5054780;28;20425;-64
2021/12/01 13:30:52;;;;;;;1.60;0.80;;;;;;;;;;5054681;28;20414;-64
2021/12/01 13:33:18;;;;;;;2.23;1.10;;;;;;;;;;5053948;28;20425;-63
2021/12/01 13:35:44;;;;;;;0.80;0.80;;;;;;;;;;5050866;28;20414;-63
2021/12/01 13:38:10;;;;;;;1.50;1.10;;;;;;;;;;5054691;28;20463;-64
2021/12/01 13:40:37;;;;;;;1.70;1.30;;;;;;;;;;5039787;28;20418;-64
2021/12/01 13:43:19;;;;;;;0.70;0.70;;;;;;;;;;5034712;28;20411;-64
2021/12/01 13:45:59;;;;;;;1.40;1.00;;;;;;;;;;5034560;28;20556;-64
2021/12/01 13:48:25;;;;;;;3.50;1.10;;;;;;;;;;5034392;28;20422;-64
2021/12/01 13:50:51;;;;;;;0.90;0.80;;;;;;;;;;5034399;28;20493;-65
2021/12/01 13:53:18;;;;;;;1.20;1.10;;;;;;;;;;5034375;28;20550;-65
2021/12/01 13:55:44;;;;;;;1.10;0.83;;;;;;;;;;5034211;28;20466;-64
2021/12/01 13:58:10;;;;;;;1.07;0.97;;;;;;;;;;5053259;28;20429;-65
2021/12/01 14:00:38;;;;;;;1.10;1.00;;;;;;;;;;5054135;28;20405;-64
2021/12/01 14:03:04;;;;;;;1.27;0.87;;;;;;;;;;5054282;28;20798;-64
2021/12/01 14:05:30;;;;;;;1.03;0.93;;;;;;;;;;5053457;28;20421;-64
2021/12/01 14:08:20;;;;;;;1.00;0.90;;;;;;;;;;5054068;28;20488;-65
2021/12/01 14:10:55;;;;;;;0.70;0.60;;;;;;;;;;5053300;28;20488;-64
2021/12/01 14:13:21;;;;;;;0.90;0.80;;;;;;;;;;5053118;28;20433;-64
2021/12/01 14:15:48;;;;;;;0.80;0.70;;;;;;;;;;5054060;28;20490;-64
2021/12/01 14:18:15;;;;;;;1.43;0.70;;;;;;;;;;5053991;28;20407;-64
2021/12/01 14:20:41;;;;;;;1.00;0.60;;;;;;;;;;5053862;28;20884;-64
2021/12/01 14:23:08;;;;;;;0.60;0.60;;;;;;;;;;5053065;28;20417;-64
2021/12/01 14:25:34;;;;;;;0.60;0.60;;;;;;;;;;5053913;28;20455;-64
2021/12/01 14:28:06;;;;;;;0.57;0.50;;;;;;;;;;5053719;28;20422;-64
2021/12/01 14:30:32;;;;;;;0.80;0.70;;;;;;;;;;5040041;28;20423;-63
2021/12/01 14:32:58;;;;;;;1.60;0.90;;;;;;;;;;5033670;28;20421;-64
2021/12/01 14:35:26;;;;;;;0.90;0.67;;;;;;;;;;5033598;28;20410;-64
2021/12/01 14:37:55;;;;;;;0.67;0.60;;;;;;;;;;5043475;28;20425;-64
2021/12/01 14:40:21;;;;;;;0.90;0.70;;;;;;;;;;5053524;28;20424;-66
2021/12/01 14:42:49;;;;;;;0.70;0.60;;;;;;;;;;5053558;28;20520;-66
2021/12/01 14:45:16;;;;;;;0.73;0.60;;;;;;;;;;5053366;28;20413;-65
2021/12/01 14:47:42;;;;;;;0.70;0.70;;;;;;;;;;5051779;28;20780;-65
2021/12/01 14:50:21;;;;;;;0.90;0.60;;;;;;;;;;5053445;28;20397;-65
2021/12/01 14:52:47;;;;;;;0.90;0.90;;;;;;;;;;5053126;28;20909;-66
2021/12/01 14:55:15;;;;;;;0.70;0.70;;;;;;;;;;5052337;28;20400;-67
2021/12/01 14:57:55;;;;;;;1.00;0.63;;;;;;;;;;5053307;28;20429;-64